Time;durP1;ratioP1;P1;durP2;ratioP2;P2;SDS_P1;SDS_P2;PMS_P1;PMS_P2;Temp;Humidity;BMP_temperature;BMP_pressure;BME280_temperature;BME280_humidity;BME280_pressure;Samples;Min_cycle;Max_cycle;Signal;HPM_P1;HPM_P2
2022/06/11 00:00:43;;;;;;;;;18.00;17.00;;;;;21.91;50.43;98945.31;4958721;28;107966;-61
2022/06/11 00:03:11;;;;;;;;;18.00;16.00;;;;;21.90;50.59;98948.31;4963787;28;102158;-61
2022/06/11 00:05:39;;;;;;;;;18.33;17.00;;;;;21.89;49.93;98952.97;4956356;28;102519;-61
2022/06/11 00:08:07;;;;;;;;;16.67;15.67;;;;;21.87;50.53;98948.84;4943864;28;103105;-61
2022/06/11 00:10:34;;;;;;;;;15.67;15.00;;;;;21.85;50.07;98951.03;4913129;28;102268;-61
2022/06/11 00:13:01;;;;;;;;;18.00;16.00;;;;;21.83;50.14;98965.06;4968002;28;102177;-61
2022/06/11 00:15:28;;;;;;;;;17.00;16.67;;;;;21.81;49.97;98962.56;4963445;28;102552;-61
2022/06/11 00:17:57;;;;;;;;;15.00;14.33;;;;;21.81;50.13;98954.31;4967682;28;104222;-61
2022/06/11 00:20:26;;;;;;;;;13.33;13.33;;;;;21.80;50.54;98966.41;4964038;28;110342;-61
2022/06/11 00:22:53;;;;;;;;;14.00;13.67;;;;;21.81;50.35;98961.75;4965966;28;102231;-61
2022/06/11 00:25:20;;;;;;;;;14.67;13.00;;;;;21.81;50.53;98959.00;4967216;28;102711;-61
2022/06/11 00:27:48;;;;;;;;;19.00;18.33;;;;;21.80;50.12;98960.09;4978824;28;105881;-61
2022/06/11 00:30:15;;;;;;;;;16.33;15.67;;;;;21.81;50.17;98959.00;4971533;28;105147;-61
2022/06/11 00:32:42;;;;;;;;;16.00;15.67;;;;;21.81;49.87;98965.34;4957831;28;103871;-62
2022/06/11 00:35:10;;;;;;;;;18.00;16.50;;;;;21.79;50.11;98959.25;4954522;28;102656;-61
2022/06/11 00:37:38;;;;;;;;;15.67;15.33;;;;;21.79;49.86;98958.44;4964196;28;104218;-61
2022/06/11 00:40:06;;;;;;;;;16.00;15.00;;;;;21.77;49.53;98977.97;4974184;28;104792;-62
2022/06/11 00:42:34;;;;;;;;;16.00;14.67;;;;;21.77;49.91;98977.97;4961514;28;102873;-61
2022/06/11 00:45:33;;;;;;;;;16.67;15.67;;;;;21.74;49.63;98983.19;4973287;28;103222;-61
2022/06/11 00:48:13;;;;;;;;;13.67;13.67;;;;;21.75;50.38;98984.81;4968158;28;108914;-61
2022/06/11 00:50:48;;;;;;;;;13.67;12.67;;;;;21.72;49.53;98969.66;4970277;28;102188;-61
2022/06/11 00:53:19;;;;;;;;;15.00;14.33;;;;;21.71;49.32;98979.00;4955904;28;102248;-61
2022/06/11 00:55:46;;;;;;;;;12.67;12.00;;;;;21.69;49.50;98974.88;4960355;28;105695;-61
2022/06/11 00:58:18;;;;;;;;;14.00;12.00;;;;;;;;4965673;28;104062;-61
2022/06/11 01:00:49;;;;;;;;;15.33;13.33;;;;;21.63;49.25;98978.69;4952234;28;102362;-61
2022/06/11 01:03:17;;;;;;;;;16.33;15.33;;;;;;;;4924452;28;102668;-61
2022/06/11 01:06:09;;;;;;;;;13.67;12.67;;;;;21.69;49.40;98974.88;4923922;28;102379;-61
2022/06/11 01:08:39;;;;;;;;;14.00;13.00;;;;;21.67;49.47;98972.38;4882391;28;108897;-62
2022/06/11 01:11:34;;;;;;;;;15.00;14.00;;;;;21.64;49.30;98972.91;4906774;28;104369;-61
2022/06/11 01:14:19;;;;;;;;;14.67;13.33;;;;;21.61;49.27;98965.19;4939298;28;102709;-61
2022/06/11 01:16:52;;;;;;;;;12.00;11.67;;;;;21.59;49.10;98963.78;4963940;28;102726;-61
2022/06/11 01:19:43;;;;;;;;;12.67;12.00;;;;;21.59;49.18;98963.78;4946109;28;104069;-61
2022/06/11 01:22:35;;;;;;;;;13.67;13.67;;;;;21.57;49.32;98966.00;4968052;28;102180;-61
2022/06/11 01:25:21;;;;;;;;;13.67;13.00;;;;;21.52;49.28;98960.44;4969422;28;103562;-62
2022/06/11 01:28:05;;;;;;;;;13.33;11.67;;;;;21.54;49.10;98956.31;4968077;28;102389;-61
2022/06/11 01:31:07;;;;;;;;;18.33;15.33;;;;;21.52;48.88;98957.69;4952796;28;104148;-61
2022/06/11 01:33:41;;;;;;;;;14.33;14.00;;;;;21.51;49.51;98961.53;4925859;28;102329;-62
2022/06/11 01:36:33;;;;;;;;;14.00;13.33;;;;;21.52;48.97;98964.03;4976661;28;102217;-61
2022/06/11 01:39:02;;;;;;;;;12.33;10.67;;;;;21.54;49.05;98956.31;4951735;28;102131;-61
2022/06/11 01:41:38;;;;;;;;;13.00;11.67;;;;;21.52;49.07;98968.69;4948203;28;104227;-62
2022/06/11 01:44:21;;;;;;;;;13.33;12.00;;;;;21.51;49.48;98965.13;4957800;28;102091;-62
2022/06/11 01:46:51;;;;;;;;;13.67;12.33;;;;;21.51;49.18;98962.38;4971437;28;102596;-61
2022/06/11 01:49:21;;;;;;;;;12.00;11.67;;;;;21.51;49.16;98967.03;4978399;28;102222;-62
2022/06/11 01:52:17;;;;;;;;;12.00;12.00;;;;;21.46;48.67;98967.00;4967994;28;104737;-61
2022/06/11 01:54:59;;;;;;;;;11.00;11.00;;;;;21.43;48.84;98971.09;4967819;28;103651;-61
2022/06/11 01:57:42;;;;;;;;;15.00;12.67;;;;;21.43;49.30;98978.53;4972117;28;102411;-62
2022/06/11 02:00:12;;;;;;;;;13.33;12.67;;;;;21.40;48.98;98973.53;4967940;28;103808;-62
2022/06/11 02:03:07;;;;;;;;;13.33;13.00;;;;;21.39;48.83;98978.19;4971021;28;109085;-62
2022/06/11 02:05:53;;;;;;;;;11.00;11.00;;;;;21.42;49.02;98971.34;4945361;28;102300;-62
2022/06/11 02:08:43;;;;;;;;;12.00;11.00;;;;;21.40;48.80;98973.53;4975605;28;102281;-62
2022/06/11 02:11:31;;;;;;;;;12.00;11.00;;;;;21.42;48.59;98974.94;4967377;28;102676;-62
2022/06/11 02:14:16;;;;;;;;;12.33;11.67;;;;;21.40;49.35;98973.53;4988935;28;111277;-62
2022/06/11 02:16:47;;;;;;;;;13.00;12.67;;;;;21.40;48.67;98977.09;4974677;28;104050;-62
2022/06/11 02:19:17;;;;;;;;;11.33;10.67;;;;;21.38;48.83;98976.56;4970922;28;102502;-61
2022/06/11 02:21:56;;;;;;;;;11.33;11.00;;;;;21.36;48.34;98976.81;4956534;28;102721;-62
2022/06/11 02:24:34;;;;;;;;;12.33;12.33;;;;;21.35;48.39;98986.16;4968216;28;104246;-62
2022/06/11 02:27:03;;;;;;;;;9.33;9.33;;;;;21.32;48.78;98975.69;4970588;28;102127;-62
2022/06/11 02:29:31;;;;;;;;;10.00;10.00;;;;;21.31;48.92;98967.69;4970506;28;102907;-62
2022/06/11 02:32:04;;;;;;;;;10.33;10.00;;;;;21.28;48.25;98977.28;4966127;28;102507;-62
2022/06/11 02:34:31;;;;;;;;;11.33;10.33;;;;;21.28;48.50;98974.53;4965004;28;104305;-62
2022/06/11 02:37:02;;;;;;;;;11.67;11.00;;;;;21.28;48.34;98976.47;4964030;28;102649;-61
2022/06/11 02:39:32;;;;;;;;;9.67;9.67;;;;;21.27;48.72;98983.88;4977805;28;103364;-62
2022/06/11 02:42:00;;;;;;;;;12.00;11.00;;;;;21.25;48.30;98977.78;4948239;28;102542;-62
2022/06/11 02:44:27;;;;;;;;;11.33;11.33;;;;;21.25;48.52;98975.03;4972103;28;104081;-62
2022/06/11 02:46:54;;;;;;;;;12.67;11.00;;;;;21.26;48.49;98989.63;4968196;28;105542;-61
2022/06/11 02:49:22;;;;;;;;;12.67;11.67;;;;;21.25;48.17;98985.25;4974746;28;102302;-61
2022/06/11 02:51:51;;;;;;;;;12.67;12.00;;;;;21.24;48.02;98989.91;4960926;28;102211;-61
2022/06/11 02:54:19;;;;;;;;;13.33;11.67;;;;;21.24;48.68;98984.41;4964528;28;105801;-62
2022/06/11 02:56:46;;;;;;;;;15.33;13.00;;;;;21.22;48.29;98986.56;4966538;28;102417;-62
2022/06/11 02:59:14;;;;;;;;;12.00;11.67;;;;;21.21;48.05;98987.66;4979404;28;102242;-62
2022/06/11 03:01:41;;;;;;;;;12.67;12.00;;;;;21.18;48.18;98993.69;4972453;28;102192;-61
2022/06/11 03:04:08;;;;;;;;;13.33;11.00;;;;;21.19;48.05;99000.03;4978204;28;104044;-62
2022/06/11 03:06:38;;;;;;;;;12.67;11.00;;;;;21.19;48.34;98992.59;4974138;28;102202;-62
2022/06/11 03:09:05;;;;;;;;;13.00;13.00;;;;;21.18;48.11;98996.44;4956427;28;102514;-62
2022/06/11 03:11:32;;;;;;;;;11.00;10.00;;;;;21.17;48.50;98996.69;4970189;28;102261;-62
2022/06/11 03:13:59;;;;;;;;;12.00;10.33;;;;;21.17;48.24;99004.94;4964531;28;104893;-61
2022/06/11 03:16:26;;;;;;;;;12.00;10.67;;;;;21.15;48.27;99002.47;4970195;28;102723;-62
2022/06/11 03:18:54;;;;;;;;;11.00;10.33;;;;;21.15;48.41;98996.97;4947599;28;102327;-61
2022/06/11 03:21:21;;;;;;;;;10.67;10.00;;;;;21.12;48.11;98997.44;4966752;28;103555;-61
2022/06/11 03:23:48;;;;;;;;;12.00;10.33;;;;;21.12;48.39;99000.19;4970839;28;104011;-61
2022/06/11 03:26:15;;;;;;;;;12.33;11.67;;;;;21.10;48.22;98999.63;4974601;28;102595;-61
2022/06/11 03:28:42;;;;;;;;;12.00;12.00;;;;;21.08;47.68;98996.31;4965349;28;103610;-61
2022/06/11 03:31:11;;;;;;;;;10.33;10.33;;;;;21.09;47.67;99003.47;4962698;28;102449;-62
2022/06/11 03:33:41;;;;;;;;;13.33;13.00;;;;;21.07;47.73;99002.91;4976878;28;111529;-61
2022/06/11 03:36:10;;;;;;;;;11.67;10.33;;;;;21.07;48.19;98994.66;4975777;28;102674;-61
2022/06/11 03:38:38;;;;;;;;;16.00;13.00;;;;;21.08;47.64;99006.47;4979419;28;102239;-61
2022/06/11 03:41:05;;;;;;;;;13.00;11.33;;;;;21.07;47.72;99011.16;4976847;28;103950;-61
2022/06/11 03:43:32;;;;;;;;;11.00;10.33;;;;;21.06;48.11;99009.50;4979580;28;104191;-61
2022/06/11 03:45:59;;;;;;;;;12.67;11.33;;;;;21.06;48.10;99014.16;4972861;28;102374;-61
2022/06/11 03:48:28;;;;;;;;;11.00;11.00;;;;;21.05;47.79;99013.31;4975433;28;102382;-61
2022/06/11 03:50:57;;;;;;;;;10.00;10.00;;;;;21.03;47.99;99014.69;4962929;28;102232;-61
2022/06/11 03:53:25;;;;;;;;;9.67;9.67;;;;;21.02;47.71;99019.34;4963971;28;104226;-62
2022/06/11 03:55:52;;;;;;;;;11.00;10.67;;;;;21.04;47.76;99016.31;4965371;28;102538;-62
2022/06/11 03:58:19;;;;;;;;;12.67;12.00;;;;;21.01;47.85;99023.19;4958448;28;111323;-62
2022/06/11 04:03:32;;;;;;;;;10.67;9.67;;;;;20.97;47.55;99011.03;4970223;28;104295;-62
2022/06/11 04:05:59;;;;;;;;;10.67;10.67;;;;;20.99;47.69;99008.00;4972837;28;102422;-62
2022/06/11 04:08:26;;;;;;;;;11.33;10.67;;;;;20.98;47.53;99018.22;4975202;28;102024;-62
2022/06/11 04:10:54;;;;;;;;;11.00;10.33;;;;;20.96;47.84;99005.78;4972404;28;102977;-62
2022/06/11 04:13:22;;;;;;;;;11.00;10.00;;;;;20.97;47.36;99010.22;4973552;28;104121;-62
2022/06/11 04:15:49;;;;;;;;;12.67;10.67;;;;;20.96;47.83;99009.38;4968148;28;102542;-61
2022/06/11 04:18:24;;;;;;;;;10.00;10.00;;;;;20.95;47.20;99007.72;4976372;28;102529;-62
2022/06/11 04:20:51;;;;;;;;;11.00;11.00;;;;;20.96;47.40;99009.38;4970907;28;102596;-62
2022/06/11 04:23:18;;;;;;;;;12.00;11.00;;;;;20.98;47.33;99007.22;4968366;28;105313;-62
2022/06/11 04:25:45;;;;;;;;;11.00;11.00;;;;;21.00;47.58;99015.19;4969979;28;102454;-61
2022/06/11 04:28:13;;;;;;;;;9.00;9.00;;;;;20.98;47.49;99012.72;4977204;28;103591;-62
2022/06/11 04:30:40;;;;;;;;;11.67;11.00;;;;;20.95;47.67;99007.72;4971689;28;102599;-62
2022/06/11 04:33:07;;;;;;;;;13.00;11.00;;;;;20.94;47.30;99011.53;4959753;28;104070;-62
2022/06/11 04:35:35;;;;;;;;;8.67;8.67;;;;;20.94;47.57;99015.13;4964435;28;104883;-62
2022/06/11 04:38:02;;;;;;;;;11.00;11.00;;;;;20.91;47.83;99007.41;4955276;28;102326;-61
2022/06/11 04:40:29;;;;;;;;;10.33;9.67;;;;;20.90;47.76;99011.22;4978206;28;102264;-61
2022/06/11 04:42:56;;;;;;;;;12.00;10.00;;;;;20.90;47.68;99004.91;4976796;28;104084;-62
2022/06/11 04:45:23;;;;;;;;;10.00;10.00;;;;;20.92;48.04;99008.25;4967300;28;102058;-61
2022/06/11 04:47:50;;;;;;;;;10.67;10.00;;;;;20.91;47.41;99006.56;4977347;28;102344;-61
2022/06/11 04:50:18;;;;;;;;;10.67;10.00;;;;;20.89;47.58;99008.75;4979045;28;102163;-61
2022/06/11 04:52:45;;;;;;;;;9.33;9.00;;;;;20.88;47.99;99015.34;4978572;28;104182;-61
2022/06/11 04:55:13;;;;;;;;;11.00;10.00;;;;;20.87;47.63;99016.41;4965014;28;102068;-62
2022/06/11 04:57:43;;;;;;;;;11.00;10.33;;;;;20.90;47.75;99021.41;4976599;28;102210;-61
2022/06/11 05:00:11;;;;;;;;;8.33;7.67;;;;;20.88;47.90;99018.09;4968844;28;103889;-61
2022/06/11 05:02:38;;;;;;;;;10.67;9.67;;;;;20.88;47.89;99016.19;4968270;28;104091;-61
2022/06/11 05:05:06;;;;;;;;;9.67;9.67;;;;;20.84;48.16;99025.19;4963422;28;103764;-61
2022/06/11 05:07:34;;;;;;;;;9.33;8.33;;;;;20.84;48.34;99025.19;4967526;28;102466;-61
2022/06/11 05:10:01;;;;;;;;;8.33;8.33;;;;;20.84;48.25;99028.78;4972922;28;102731;-61
2022/06/11 05:12:28;;;;;;;;;11.00;10.33;;;;;20.86;47.94;99036.75;4965816;28;104200;-61
2022/06/11 05:14:55;;;;;;;;;8.33;7.67;;;;;20.86;48.28;99034.81;4967530;28;102737;-62
2022/06/11 05:17:22;;;;;;;;;9.67;9.33;;;;;20.86;48.28;99028.50;4973406;28;102223;-61
2022/06/11 05:19:49;;;;;;;;;9.67;9.67;;;;;20.84;48.47;99028.78;4972980;28;103343;-61
2022/06/11 05:22:16;;;;;;;;;8.33;8.33;;;;;20.85;48.13;99032.31;4965827;28;104153;-61
2022/06/11 05:24:43;;;;;;;;;10.67;10.00;;;;;20.86;48.31;99036.75;4978489;28;102296;-61
2022/06/11 05:27:19;;;;;;;;;10.67;9.00;;;;;20.86;48.74;99045.00;4974180;28;102841;-61
2022/06/11 05:30:00;;;;;;;;;9.00;8.33;;;;;20.85;48.57;99046.06;4952356;28;102164;-61
2022/06/11 05:32:29;;;;;;;;;7.33;7.33;;;;;20.86;48.33;99042.25;4960423;28;104075;-60
2022/06/11 05:34:57;;;;;;;;;7.00;7.00;;;;;20.84;48.35;99038.94;4971568;28;102501;-61
2022/06/11 05:37:24;;;;;;;;;9.00;9.00;;;;;20.85;48.30;99040.56;4964634;28;102151;-62
2022/06/11 05:39:52;;;;;;;;;8.67;8.67;;;;;20.85;48.73;99044.16;4964355;28;102377;-61
2022/06/11 05:42:20;;;;;;;;;6.67;6.67;;;;;20.87;48.78;99047.50;4960720;28;104116;-61
2022/06/11 05:44:47;;;;;;;;;8.00;8.00;;;;;20.89;48.98;99050.81;4970612;28;102357;-61
2022/06/11 05:47:15;;;;;;;;;9.00;8.67;;;;;20.91;48.58;99045.06;4980253;28;102454;-62
2022/06/11 05:49:44;;;;;;;;;7.33;7.33;;;;;20.91;49.21;99039.56;4960892;28;103633;-61
2022/06/11 05:52:16;;;;;;;;;8.00;8.00;;;;;20.92;48.95;99041.22;4969403;28;108953;-61
2022/06/11 05:54:45;;;;;;;;;8.33;8.33;;;;;20.92;48.76;99041.22;4972900;28;102181;-61
2022/06/11 05:57:14;;;;;;;;;6.00;5.33;;;;;20.94;49.03;99039.88;4964607;28;102281;-61
2022/06/11 05:59:44;;;;;;;;;7.00;7.00;;;;;20.93;49.19;99042.91;4964027;28;102644;-60
2022/06/11 06:02:12;;;;;;;;;7.00;7.00;;;;;20.91;49.48;99040.41;4962103;28;108947;-61
2022/06/11 06:04:39;;;;;;;;;6.33;5.67;;;;;20.92;49.13;99047.56;4968850;28;102387;-61
2022/06/11 06:07:07;;;;;;;;;7.00;7.00;;;;;20.93;49.26;99046.47;4965056;28;102129;-61
2022/06/11 06:09:34;;;;;;;;;7.67;6.67;;;;;20.96;49.23;99047.88;4982230;28;102189;-61
2022/06/11 06:12:02;;;;;;;;;7.67;7.67;;;;;20.97;49.17;99045.94;4972713;28;104162;-61
2022/06/11 06:14:30;;;;;;;;;6.00;6.00;;;;;20.99;49.40;99046.50;4969341;28;102504;-61
2022/06/11 06:16:57;;;;;;;;;5.67;5.67;;;;;20.98;49.66;99051.22;4964153;28;102438;-60
2022/06/11 06:19:44;;;;;;;;;7.00;6.33;;;;;21.02;49.30;99046.00;4963534;28;102341;-61
2022/06/11 06:22:11;;;;;;;;;7.00;6.00;;;;;21.02;49.64;99060.59;4969321;28;109801;-61
2022/06/11 06:24:38;;;;;;;;;6.33;6.33;;;;;21.04;49.64;99052.06;4973551;28;103165;-61
2022/06/11 06:27:05;;;;;;;;;8.00;8.00;;;;;21.05;49.75;99056.50;4968198;28;103847;-62
2022/06/11 06:29:32;;;;;;;;;7.00;7.00;;;;;21.06;49.63;99050.75;4977906;28;102579;-61
2022/06/11 06:31:59;;;;;;;;;6.67;6.67;;;;;21.07;49.44;99049.66;4955336;28;104036;-61
2022/06/11 06:34:26;;;;;;;;;7.00;7.00;;;;;21.08;49.95;99048.56;4967593;28;112104;-61
2022/06/11 06:36:53;;;;;;;;;8.00;7.33;;;;;21.08;50.10;99051.31;4950227;28;102196;-61
2022/06/11 06:39:20;;;;;;;;;7.00;6.33;;;;;21.08;49.70;99056.78;4969690;28;102253;-61
2022/06/11 06:41:49;;;;;;;;;6.33;6.00;;;;;21.08;50.26;99054.03;4964721;28;104056;-61
2022/06/11 06:44:16;;;;;;;;;6.00;6.00;;;;;21.09;49.98;99061.22;4978197;28;102440;-62
2022/06/11 06:46:44;;;;;;;;;9.00;7.67;;;;;21.11;49.87;99056.31;4960263;28;102657;-62
2022/06/11 06:49:15;;;;;;;;;6.33;5.67;;;;;21.13;50.30;99054.13;4966497;28;102612;-62
2022/06/11 06:51:42;;;;;;;;;6.00;6.00;;;;;21.14;49.83;99058.56;4970300;28;108922;-62
2022/06/11 06:54:10;;;;;;;;;7.00;6.00;;;;;21.15;50.13;99057.47;4971602;28;102556;-62
2022/06/11 06:56:40;;;;;;;;;8.67;7.67;;;;;21.12;50.31;99057.13;4973447;28;102495;-61
2022/06/11 06:59:09;;;;;;;;;7.33;6.67;;;;;21.13;50.05;99062.38;4974542;28;102618;-62
2022/06/11 07:01:37;;;;;;;;;6.67;6.33;;;;;21.13;50.32;99062.38;4963015;28;103038;-62
2022/06/11 07:04:05;;;;;;;;;8.67;8.33;;;;;21.13;49.98;99065.13;4962271;28;102358;-62
2022/06/11 07:06:50;;;;;;;;;6.67;6.67;;;;;21.15;50.25;99062.16;4944907;28;102226;-61
2022/06/11 07:09:17;;;;;;;;;9.00;7.00;;;;;21.13;50.20;99065.13;4968319;28;104464;-59
2022/06/11 07:11:44;;;;;;;;;8.33;8.33;;;;;21.15;50.48;99073.13;4977248;28;104062;-62
2022/06/11 07:14:12;;;;;;;;;10.00;10.00;;;;;21.12;50.39;99071.69;4920277;28;102305;-62
2022/06/11 07:16:41;;;;;;;;;10.00;9.67;;;;;21.17;50.65;99065.44;4958877;28;103789;-62
2022/06/11 07:19:48;;;;;;;;;10.00;9.33;;;;;21.17;50.74;99065.44;4997627;28;102151;-62
2022/06/11 07:22:19;;;;;;;;;12.00;12.00;;;;;21.20;50.27;99064.94;4771830;28;109093;-62
2022/06/11 07:24:46;;;;;;;;;12.67;11.67;;;;;21.19;50.73;99064.13;4930542;28;102277;-62
2022/06/11 07:27:24;;;;;;;;;12.67;11.67;;;;;21.19;50.03;99069.63;4975159;28;102112;-62
2022/06/11 07:29:54;;;;;;;;;14.67;12.00;;;;;21.20;50.62;99068.53;4963670;28;103593;-62
2022/06/11 07:32:25;;;;;;;;;14.67;14.33;;;;;21.23;50.25;99079.00;4963264;28;104422;-62
2022/06/11 07:34:52;;;;;;;;;16.33;15.33;;;;;21.24;49.98;99077.94;4963303;28;102879;-62
2022/06/11 07:37:20;;;;;;;;;14.33;14.33;;;;;21.25;49.87;99085.06;4983266;28;102862;-62
2022/06/11 07:39:47;;;;;;;;;18.67;17.33;;;;;21.27;50.53;99084.81;4969400;28;102513;-62
2022/06/11 07:42:16;;;;;;;;;19.00;17.00;;;;;21.27;50.22;99093.91;4970268;28;103184;-62
2022/06/11 07:44:43;;;;;;;;;17.67;17.67;;;;;21.27;50.00;99080.16;4958699;28;102361;-61
2022/06/11 07:47:10;;;;;;;;;18.00;16.67;;;;;21.28;50.39;99083.75;4989663;28;102296;-61
2022/06/11 07:49:37;;;;;;;;;21.00;19.33;;;;;21.29;50.27;99079.91;4968880;28;102412;-62
2022/06/11 07:52:05;;;;;;;;;19.75;17.25;;;;;21.29;50.49;99075.25;4972601;28;104170;-62
2022/06/11 07:54:33;;;;;;;;;22.50;22.00;;;;;21.31;50.26;99074.97;4975352;28;102466;-62
2022/06/11 07:57:00;;;;;;;;;25.75;24.50;;;;;21.31;50.15;99073.03;4972494;28;102393;-61
2022/06/11 07:59:34;;;;;;;;;23.25;20.75;;;;;21.33;49.78;99073.63;4969148;28;104602;-62
2022/06/11 08:02:01;;;;;;;;;26.75;25.00;;;;;21.35;49.88;99073.34;4967217;28;104085;-61
2022/06/11 08:04:29;;;;;;;;;31.00;29.00;;;;;21.36;50.02;99072.25;4958459;28;102467;-61
2022/06/11 08:06:56;;;;;;;;;22.50;20.00;;;;;21.36;49.55;99075.84;4977466;28;102738;-61
2022/06/11 08:09:23;;;;;;;;;25.75;24.50;;;;;21.38;50.18;99083.03;4977875;28;102514;-61
2022/06/11 08:11:50;;;;;;;;;24.67;24.00;;;;;21.38;49.83;99088.53;4963953;28;104044;-61
2022/06/11 08:14:17;;;;;;;;;29.25;25.50;;;;;21.39;49.92;99073.69;4969166;28;102519;-61
2022/06/11 08:16:44;;;;;;;;;27.25;24.50;;;;;21.39;49.82;99080.00;4968097;28;102284;-61
2022/06/11 08:19:11;;;;;;;;;24.25;24.00;;;;;21.40;49.49;99078.06;4974553;28;102529;-61
2022/06/11 08:21:38;;;;;;;;;2.00;0.75;;;;;21.40;49.63;99069.81;4961954;28;104038;-62
2022/06/11 08:24:05;;;;;;;;;27.75;25.00;;;;;21.40;49.69;99072.56;4974770;28;102144;-61
2022/06/11 08:26:32;;;;;;;;;27.00;25.25;;;;;21.42;49.85;99070.41;4966427;28;102700;-61
2022/06/11 08:28:59;;;;;;;;;26.00;23.00;;;;;21.41;49.72;99068.72;4963005;28;103777;-61
2022/06/11 08:31:27;;;;;;;;;28.00;27.25;;;;;21.42;49.54;99068.47;4967802;28;105084;-62
2022/06/11 08:33:54;;;;;;;;;29.50;26.25;;;;;21.43;49.93;99074.81;4941569;28;102514;-62
2022/06/11 08:36:21;;;;;;;;;27.00;25.00;;;;;21.45;49.66;99072.63;4971877;28;102147;-61
2022/06/11 08:38:48;;;;;;;;;29.25;24.50;;;;;21.46;49.54;99060.53;4970289;28;102687;-61
2022/06/11 08:41:17;;;;;;;;;26.25;23.50;;;;;21.46;50.07;99057.78;4961153;28;104137;-61
2022/06/11 08:43:58;;;;;;;;;30.75;29.50;;;;;21.47;49.42;99065.78;4968210;28;102648;-61
2022/06/11 08:46:30;;;;;;;;;29.25;25.50;;;;;21.47;49.68;99064.97;4974151;28;102302;-61
2022/06/11 08:49:03;;;;;;;;;26.00;25.00;;;;;21.48;49.41;99061.91;4967856;28;102680;-61
2022/06/11 08:51:39;;;;;;;;;28.75;24.50;;;;;21.49;49.39;99057.25;4964094;28;104074;-62
2022/06/11 08:54:11;;;;;;;;;24.67;22.67;;;;;21.51;49.57;99068.84;4972977;28;109107;-60
2022/06/11 08:57:04;;;;;;;;;26.25;23.50;;;;;21.51;49.18;99060.59;4971621;28;103651;-61
2022/06/11 08:59:54;;;;;;;;;26.75;22.50;;;;;21.52;49.45;99056.75;4958943;28;102223;-62
2022/06/11 09:02:37;;;;;;;;;21.75;20.25;;;;;21.52;48.05;99054.00;4966905;28;108840;-62
2022/06/11 09:05:27;;;;;;;;;24.00;23.00;;;;;21.53;48.40;99055.63;4965144;28;102584;-61
2022/06/11 09:08:19;;;;;;;;;25.25;23.50;;;;;21.55;48.63;99058.97;4956348;28;102754;-62
2022/06/11 09:11:01;;;;;;;;;24.75;24.00;;;;;21.55;48.93;99056.22;4966899;28;102502;-62
2022/06/11 09:13:56;;;;;;;;;20.75;18.25;;;;;21.55;48.36;99056.22;4969204;28;104239;-62
2022/06/11 09:16:52;;;;;;;;;22.75;21.25;;;;;21.56;48.23;99049.63;4966501;28;102137;-61
2022/06/11 09:20:00;;;;;;;;;25.50;23.00;;;;;21.55;49.04;99045.22;4952973;28;102199;-61
2022/06/11 09:23:13;;;;;;;;;20.00;19.33;;;;;21.54;48.01;99046.31;4931224;28;103720;-61
2022/06/11 09:25:51;;;;;;;;;18.33;18.33;;;;;21.54;47.92;99044.38;4972673;28;108852;-61
2022/06/11 09:28:43;;;;;;;;;22.00;18.67;;;;;21.56;48.37;99041.38;4982535;28;102254;-62
2022/06/11 09:31:32;;;;;;;;;21.67;19.67;;;;;21.59;48.05;99040.84;4963990;28;102631;-61
2022/06/11 09:34:02;;;;;;;;;18.33;18.33;;;;;21.59;48.11;99036.19;4973604;28;102135;-61
2022/06/11 09:36:35;;;;;;;;;18.00;18.00;;;;;21.60;48.49;99048.00;4956839;28;104207;-61
2022/06/11 09:39:36;;;;;;;;;18.67;17.33;;;;;21.61;47.67;99041.44;4967971;28;102544;-62
2022/06/11 09:42:37;;;;;;;;;20.67;18.67;;;;;21.60;47.86;99037.00;4968695;28;102920;-62
2022/06/11 09:45:28;;;;;;;;;21.67;19.00;;;;;21.60;47.74;99026.84;4957637;28;102247;-62
2022/06/11 09:48:04;;;;;;;;;19.67;16.00;;;;;21.62;47.74;99032.88;4970532;28;108838;-62
2022/06/11 09:50:40;;;;;;;;;18.00;15.00;;;;;21.63;47.52;99036.47;4970891;28;102428;-62
2022/06/11 09:53:27;;;;;;;;;15.33;15.00;;;;;21.63;47.77;99029.06;4956151;28;102414;-62
2022/06/11 09:55:54;;;;;;;;;17.67;16.33;;;;;;;;4969837;28;102452;-61
2022/06/11 09:58:41;;;;;;;;;13.33;10.33;;;;;21.59;42.14;99025.16;4973307;28;102828;-61
2022/06/11 10:01:15;;;;;;;;;7.33;5.00;;;;;21.62;41.13;99024.63;4951736;28;103109;-61
2022/06/11 10:04:05;;;;;;;;;3.67;3.67;;;;;21.61;40.33;99022.16;4941720;28;102327;-61
2022/06/11 10:06:54;;;;;;;;;3.00;2.00;;;;;21.66;41.34;99016.66;4969257;28;102390;-61
2022/06/11 10:09:39;;;;;;;;;1.33;1.00;;;;;21.73;41.53;99015.38;4965563;28;109033;-61
2022/06/11 10:12:31;;;;;;;;;2.00;2.00;;;;;21.79;41.12;99019.81;4967356;28;102247;-61
2022/06/11 10:15:14;;;;;;;;;1.33;0.67;;;;;21.80;40.47;99026.16;4966487;28;102161;-61
2022/06/11 10:18:09;;;;;;;;;1.00;0.00;;;;;21.81;39.38;99016.81;4958701;28;102840;-61
2022/06/11 10:20:43;;;;;;;;;0.67;0.67;;;;;21.84;40.01;99015.47;4962032;28;109246;-61
2022/06/11 10:23:12;;;;;;;;;0.00;0.00;;;;;21.77;40.17;99007.41;4962410;28;103875;-61
2022/06/11 10:25:58;;;;;;;;;0.67;0.67;;;;;21.78;39.12;99004.41;4966257;27;102924;-60
2022/06/11 10:28:41;;;;;;;;;1.67;0.67;;;;;21.86;39.61;99014.09;4958923;28;103712;-61
2022/06/11 10:31:13;;;;;;;;;1.67;1.67;;;;;21.79;38.04;98997.00;4966640;28;108988;-59
2022/06/11 10:34:07;;;;;;;;;0.67;0.67;;;;;21.86;39.57;99005.84;4970565;28;102183;-60
2022/06/11 10:37:20;;;;;;;;;1.00;1.00;;;;;21.89;38.99;99002.53;4967171;28;102447;-61
2022/06/11 10:40:05;;;;;;;;;1.67;1.67;;;;;21.90;39.15;98987.69;4974364;28;105819;-60
2022/06/11 10:42:39;;;;;;;;;1.33;0.67;;;;;21.88;38.46;98983.56;4958844;28;103744;-60
2022/06/11 10:45:12;;;;;;;;;1.00;1.00;;;;;21.92;39.03;98985.50;4980676;28;102335;-61
2022/06/11 10:47:42;;;;;;;;;1.00;1.00;;;;;21.90;37.18;98987.69;4980235;28;102412;-59
2022/06/11 10:50:09;;;;;;;;;0.67;0.67;;;;;21.90;38.22;98987.69;4957174;28;102370;-60
2022/06/11 10:52:39;;;;;;;;;0.67;0.67;;;;;21.94;38.39;98988.00;4973803;28;104141;-60
2022/06/11 10:55:08;;;;;;;;;0.67;0.67;;;;;22.01;38.80;98994.13;4970757;28;102461;-60
2022/06/11 10:57:35;;;;;;;;;1.67;1.67;;;;;21.95;35.93;98990.50;4965618;28;102481;-60
2022/06/11 11:00:12;;;;;;;;;0.67;0.67;;;;;21.94;35.03;98979.75;4958779;28;104306;-60
2022/06/11 11:02:42;;;;;;;;;1.00;1.00;;;;;22.01;37.27;98983.97;4971406;28;110613;-60
2022/06/11 11:05:11;;;;;;;;;0.67;0.67;;;;;22.04;37.91;98986.16;4959369;28;109290;-60
2022/06/11 11:07:58;;;;;;;;;0.67;0.67;;;;;22.06;38.34;98980.41;4978345;28;102323;-60
2022/06/11 11:10:41;;;;;;;;;1.00;1.00;;;;;22.08;37.88;98981.78;4962636;28;102478;-61
2022/06/11 11:13:30;;;;;;;;;1.00;1.00;;;;;22.11;38.34;98978.47;4973987;28;108881;-61
2022/06/11 11:16:21;;;;;;;;;3.00;1.33;;;;;22.03;37.59;98980.91;4967475;28;102110;-61
2022/06/11 11:18:53;;;;;;;;;1.33;1.33;;;;;22.12;37.78;98977.41;4954042;28;102534;-61
2022/06/11 11:21:29;;;;;;;;;2.00;1.00;;;;;22.17;38.52;98971.91;4949474;28;104732;-61
2022/06/11 11:24:02;;;;;;;;;2.00;2.00;;;;;22.19;38.34;98978.00;4960323;28;103802;-60
2022/06/11 11:26:39;;;;;;;;;1.00;1.00;;;;;22.24;38.70;98982.72;4968197;28;103147;-60
2022/06/11 11:29:08;;;;;;;;;1.00;1.00;;;;;22.24;36.68;98971.69;4928394;28;103778;-60
2022/06/11 11:31:46;;;;;;;;;1.00;1.00;;;;;22.24;38.09;98969.75;4958308;28;102430;-61
2022/06/11 11:34:21;;;;;;;;;1.67;1.00;;;;;22.24;37.85;98972.50;4958205;28;107556;-60
2022/06/11 11:36:48;;;;;;;;;1.00;1.00;;;;;22.28;38.28;98966.47;4966888;28;102736;-60
2022/06/11 11:39:18;;;;;;;;;1.00;1.00;;;;;22.33;36.53;98966.50;4951028;28;104468;-60
2022/06/11 11:42:01;;;;;;;;;1.00;1.00;;;;;22.36;37.17;98968.72;4959704;28;102351;-60
2022/06/11 11:44:29;;;;;;;;;2.67;2.00;;;;;22.35;38.02;98965.13;4977439;28;104248;-60
2022/06/11 11:47:00;;;;;;;;;1.00;1.00;;;;;22.38;37.49;98961.81;4961603;28;103010;-60